sensor_id;sensor_type;location;lat;lon;timestamp;temperature;humidity
45137;DHT22;30894;51.740;19.498;2023-04-09T00:00:00;7.90;98.00
45137;DHT22;30894;51.740;19.498;2023-04-09T00:02:25;7.90;98.10
45137;DHT22;30894;51.740;19.498;2023-04-09T00:04:52;7.90;98.10
45137;DHT22;30894;51.740;19.498;2023-04-09T00:07:18;7.90;98.10
45137;DHT22;30894;51.740;19.498;2023-04-09T00:09:44;7.80;98.10
45137;DHT22;30894;51.740;19.498;2023-04-09T00:12:10;7.80;98.30
45137;DHT22;30894;51.740;19.498;2023-04-09T00:14:36;7.80;98.20
45137;DHT22;30894;51.740;19.498;2023-04-09T00:17:02;7.80;98.20
45137;DHT22;30894;51.740;19.498;2023-04-09T00:19:28;7.80;98.20
45137;DHT22;30894;51.740;19.498;2023-04-09T00:21:54;7.80;98.20
45137;DHT22;30894;51.740;19.498;2023-04-09T00:24:20;7.80;98.20
45137;DHT22;30894;51.740;19.498;2023-04-09T00:26:46;7.80;98.20
45137;DHT22;30894;51.740;19.498;2023-04-09T00:29:14;7.80;98.20
45137;DHT22;30894;51.740;19.498;2023-04-09T00:31:40;7.80;98.20
45137;DHT22;30894;51.740;19.498;2023-04-09T00:34:06;7.80;98.30
45137;DHT22;30894;51.740;19.498;2023-04-09T00:36:32;7.70;98.20
45137;DHT22;30894;51.740;19.498;2023-04-09T00:38:58;7.70;98.20
45137;DHT22;30894;51.740;19.498;2023-04-09T00:41:24;7.70;98.20
45137;DHT22;30894;51.740;19.498;2023-04-09T00:43:50;7.70;98.20
45137;DHT22;30894;51.740;19.498;2023-04-09T00:46:17;7.70;98.20
45137;DHT22;30894;51.740;19.498;2023-04-09T00:48:43;7.70;98.20
45137;DHT22;30894;51.740;19.498;2023-04-09T00:51:09;7.70;98.30
45137;DHT22;30894;51.740;19.498;2023-04-09T00:53:35;7.70;98.30
45137;DHT22;30894;51.740;19.498;2023-04-09T00:56:02;7.70;98.30
45137;DHT22;30894;51.740;19.498;2023-04-09T00:58:29;7.70;98.40
45137;DHT22;30894;51.740;19.498;2023-04-09T01:03:30;7.60;98.40
45137;DHT22;30894;51.740;19.498;2023-04-09T01:06:17;7.60;98.50
45137;DHT22;30894;51.740;19.498;2023-04-09T01:08:59;7.60;98.50
45137;DHT22;30894;51.740;19.498;2023-04-09T01:11:36;7.60;98.60
45137;DHT22;30894;51.740;19.498;2023-04-09T01:17:30;7.50;98.70
45137;DHT22;30894;51.740;19.498;2023-04-09T01:20:08;7.50;98.70
45137;DHT22;30894;51.740;19.498;2023-04-09T01:31:00;7.50;98.70
45137;DHT22;30894;51.740;19.498;2023-04-09T01:33:30;7.50;98.80
45137;DHT22;30894;51.740;19.498;2023-04-09T01:35:56;7.50;98.80
45137;DHT22;30894;51.740;19.498;2023-04-09T01:38:23;7.50;98.80
45137;DHT22;30894;51.740;19.498;2023-04-09T01:40:51;7.50;98.90
45137;DHT22;30894;51.740;19.498;2023-04-09T01:43:19;7.40;98.90
45137;DHT22;30894;51.740;19.498;2023-04-09T01:45:46;7.40;98.90
45137;DHT22;30894;51.740;19.498;2023-04-09T01:48:14;7.40;98.90
45137;DHT22;30894;51.740;19.498;2023-04-09T01:50:43;7.40;98.90
45137;DHT22;30894;51.740;19.498;2023-04-09T01:53:10;7.40;99.00
45137;DHT22;30894;51.740;19.498;2023-04-09T01:55:36;7.40;99.00
45137;DHT22;30894;51.740;19.498;2023-04-09T01:58:03;7.40;99.00
45137;DHT22;30894;51.740;19.498;2023-04-09T02:00:34;7.30;99.10
45137;DHT22;30894;51.740;19.498;2023-04-09T02:06:00;7.30;99.20
45137;DHT22;30894;51.740;19.498;2023-04-09T02:08:30;7.20;99.30
45137;DHT22;30894;51.740;19.498;2023-04-09T02:10:59;7.20;99.40
45137;DHT22;30894;51.740;19.498;2023-04-09T02:13:30;7.20;99.50
45137;DHT22;30894;51.740;19.498;2023-04-09T02:15:58;7.10;99.50
45137;DHT22;30894;51.740;19.498;2023-04-09T02:18:27;7.10;99.50
45137;DHT22;30894;51.740;19.498;2023-04-09T02:20:54;7.10;99.60
45137;DHT22;30894;51.740;19.498;2023-04-09T02:23:21;7.20;99.60
45137;DHT22;30894;51.740;19.498;2023-04-09T02:25:48;7.20;99.50
45137;DHT22;30894;51.740;19.498;2023-04-09T02:28:15;7.20;99.50
45137;DHT22;30894;51.740;19.498;2023-04-09T02:30:41;7.20;99.40
45137;DHT22;30894;51.740;19.498;2023-04-09T02:33:07;7.20;99.40
45137;DHT22;30894;51.740;19.498;2023-04-09T02:35:33;7.20;99.40
45137;DHT22;30894;51.740;19.498;2023-04-09T02:38:00;7.20;99.60
45137;DHT22;30894;51.740;19.498;2023-04-09T02:40:26;7.30;99.30
45137;DHT22;30894;51.740;19.498;2023-04-09T02:42:53;7.20;99.30
45137;DHT22;30894;51.740;19.498;2023-04-09T02:45:19;7.30;99.30
45137;DHT22;30894;51.740;19.498;2023-04-09T02:47:45;7.30;99.40
45137;DHT22;30894;51.740;19.498;2023-04-09T02:50:11;7.30;99.20
45137;DHT22;30894;51.740;19.498;2023-04-09T02:52:37;7.30;99.20
45137;DHT22;30894;51.740;19.498;2023-04-09T02:55:03;7.30;99.30
45137;DHT22;30894;51.740;19.498;2023-04-09T02:57:30;7.20;99.20
45137;DHT22;30894;51.740;19.498;2023-04-09T02:59:58;7.30;99.30
45137;DHT22;30894;51.740;19.498;2023-04-09T03:02:24;7.20;99.30
45137;DHT22;30894;51.740;19.498;2023-04-09T03:04:50;7.20;99.30
45137;DHT22;30894;51.740;19.498;2023-04-09T03:07:17;7.20;99.40
45137;DHT22;30894;51.740;19.498;2023-04-09T03:09:45;7.20;99.40
45137;DHT22;30894;51.740;19.498;2023-04-09T03:12:11;7.20;99.50
45137;DHT22;30894;51.740;19.498;2023-04-09T03:14:37;7.20;99.50
45137;DHT22;30894;51.740;19.498;2023-04-09T03:17:04;7.20;99.50
45137;DHT22;30894;51.740;19.498;2023-04-09T03:19:30;7.10;99.60
45137;DHT22;30894;51.740;19.498;2023-04-09T03:21:56;7.10;99.60
45137;DHT22;30894;51.740;19.498;2023-04-09T03:24:22;7.10;99.60
45137;DHT22;30894;51.740;19.498;2023-04-09T03:26:48;7.10;99.70
45137;DHT22;30894;51.740;19.498;2023-04-09T03:29:14;7.10;99.70
45137;DHT22;30894;51.740;19.498;2023-04-09T03:31:41;7.10;99.70
45137;DHT22;30894;51.740;19.498;2023-04-09T03:34:07;7.10;99.70
45137;DHT22;30894;51.740;19.498;2023-04-09T03:36:33;7.10;99.70
45137;DHT22;30894;51.740;19.498;2023-04-09T03:38:59;7.10;99.90
45137;DHT22;30894;51.740;19.498;2023-04-09T03:41:26;7.10;99.80
45137;DHT22;30894;51.740;19.498;2023-04-09T03:43:52;7.10;99.80
45137;DHT22;30894;51.740;19.498;2023-04-09T03:46:19;7.10;99.80
45137;DHT22;30894;51.740;19.498;2023-04-09T03:48:44;7.00;99.90
45137;DHT22;30894;51.740;19.498;2023-04-09T03:51:12;7.00;99.90
45137;DHT22;30894;51.740;19.498;2023-04-09T03:53:39;7.00;99.90
45137;DHT22;30894;51.740;19.498;2023-04-09T03:56:07;7.00;99.90
45137;DHT22;30894;51.740;19.498;2023-04-09T03:58:34;6.90;99.90
45137;DHT22;30894;51.740;19.498;2023-04-09T04:01:00;6.90;99.90
45137;DHT22;30894;51.740;19.498;2023-04-09T04:03:27;6.90;99.90
45137;DHT22;30894;51.740;19.498;2023-04-09T04:05:59;6.90;99.90
45137;DHT22;30894;51.740;19.498;2023-04-09T04:08:27;6.80;99.90
45137;DHT22;30894;51.740;19.498;2023-04-09T04:10:53;6.80;99.90
45137;DHT22;30894;51.740;19.498;2023-04-09T04:13:20;6.80;99.90
45137;DHT22;30894;51.740;19.498;2023-04-09T04:15:47;6.70;99.90
45137;DHT22;30894;51.740;19.498;2023-04-09T04:18:13;6.70;99.90
45137;DHT22;30894;51.740;19.498;2023-04-09T04:20:40;6.70;99.90
45137;DHT22;30894;51.740;19.498;2023-04-09T04:23:06;6.60;99.90
45137;DHT22;30894;51.740;19.498;2023-04-09T04:25:32;6.60;99.90
45137;DHT22;30894;51.740;19.498;2023-04-09T04:27:58;6.60;99.90
45137;DHT22;30894;51.740;19.498;2023-04-09T04:30:25;6.60;99.90
45137;DHT22;30894;51.740;19.498;2023-04-09T04:32:51;6.60;99.90
45137;DHT22;30894;51.740;19.498;2023-04-09T04:35:17;6.60;99.90
45137;DHT22;30894;51.740;19.498;2023-04-09T04:37:44;6.60;99.90
45137;DHT22;30894;51.740;19.498;2023-04-09T04:40:11;6.60;99.90
45137;DHT22;30894;51.740;19.498;2023-04-09T04:42:37;6.60;99.90
45137;DHT22;30894;51.740;19.498;2023-04-09T04:45:03;6.60;99.90
45137;DHT22;30894;51.740;19.498;2023-04-09T04:47:32;6.60;99.90
45137;DHT22;30894;51.740;19.498;2023-04-09T04:49:58;6.60;99.90
45137;DHT22;30894;51.740;19.498;2023-04-09T04:52:26;6.60;99.90
45137;DHT22;30894;51.740;19.498;2023-04-09T04:54:52;6.60;99.90
45137;DHT22;30894;51.740;19.498;2023-04-09T04:57:18;6.60;99.90
45137;DHT22;30894;51.740;19.498;2023-04-09T04:59:44;6.60;99.90
45137;DHT22;30894;51.740;19.498;2023-04-09T05:02:10;6.60;99.90
45137;DHT22;30894;51.740;19.498;2023-04-09T05:04:37;6.50;99.90
45137;DHT22;30894;51.740;19.498;2023-04-09T05:07:02;6.60;99.90
45137;DHT22;30894;51.740;19.498;2023-04-09T05:09:29;6.60;99.90
45137;DHT22;30894;51.740;19.498;2023-04-09T05:11:55;6.70;99.90
45137;DHT22;30894;51.740;19.498;2023-04-09T05:14:22;6.70;99.90
45137;DHT22;30894;51.740;19.498;2023-04-09T05:16:48;6.70;99.90
45137;DHT22;30894;51.740;19.498;2023-04-09T05:19:15;6.70;99.90
45137;DHT22;30894;51.740;19.498;2023-04-09T05:21:41;6.70;99.90
45137;DHT22;30894;51.740;19.498;2023-04-09T05:24:07;6.80;99.90
45137;DHT22;30894;51.740;19.498;2023-04-09T05:26:33;6.90;99.90
45137;DHT22;30894;51.740;19.498;2023-04-09T05:28:59;6.90;99.90
45137;DHT22;30894;51.740;19.498;2023-04-09T05:31:26;7.00;99.90
45137;DHT22;30894;51.740;19.498;2023-04-09T05:33:53;7.10;99.90
45137;DHT22;30894;51.740;19.498;2023-04-09T05:36:19;7.20;99.90
45137;DHT22;30894;51.740;19.498;2023-04-09T05:38:46;7.30;99.90
45137;DHT22;30894;51.740;19.498;2023-04-09T05:41:12;7.40;99.70
45137;DHT22;30894;51.740;19.498;2023-04-09T05:43:38;7.50;99.40
45137;DHT22;30894;51.740;19.498;2023-04-09T05:46:05;7.60;99.20
45137;DHT22;30894;51.740;19.498;2023-04-09T05:48:34;7.70;99.00
45137;DHT22;30894;51.740;19.498;2023-04-09T05:51:01;7.70;98.80
45137;DHT22;30894;51.740;19.498;2023-04-09T05:53:28;7.80;98.80
45137;DHT22;30894;51.740;19.498;2023-04-09T05:56:01;7.80;98.80
45137;DHT22;30894;51.740;19.498;2023-04-09T05:58:28;7.90;98.80
45137;DHT22;30894;51.740;19.498;2023-04-09T06:00:54;8.00;98.60
45137;DHT22;30894;51.740;19.498;2023-04-09T06:03:21;8.00;98.50
45137;DHT22;30894;51.740;19.498;2023-04-09T06:05:46;8.10;98.40
45137;DHT22;30894;51.740;19.498;2023-04-09T06:08:14;8.20;98.20
45137;DHT22;30894;51.740;19.498;2023-04-09T06:10:44;8.30;98.00
45137;DHT22;30894;51.740;19.498;2023-04-09T06:13:10;8.40;97.90
45137;DHT22;30894;51.740;19.498;2023-04-09T06:15:38;8.70;97.80
45137;DHT22;30894;51.740;19.498;2023-04-09T06:18:06;8.90;97.40
45137;DHT22;30894;51.740;19.498;2023-04-09T06:20:34;9.10;97.00
45137;DHT22;30894;51.740;19.498;2023-04-09T06:23:00;9.20;96.90
45137;DHT22;30894;51.740;19.498;2023-04-09T06:25:26;9.40;96.70
45137;DHT22;30894;51.740;19.498;2023-04-09T06:27:53;9.50;96.50
45137;DHT22;30894;51.740;19.498;2023-04-09T06:30:19;9.70;96.20
45137;DHT22;30894;51.740;19.498;2023-04-09T06:32:45;9.90;95.90
45137;DHT22;30894;51.740;19.498;2023-04-09T06:35:13;10.00;95.70
45137;DHT22;30894;51.740;19.498;2023-04-09T06:37:40;10.10;95.60
45137;DHT22;30894;51.740;19.498;2023-04-09T06:40:07;10.40;95.40
45137;DHT22;30894;51.740;19.498;2023-04-09T06:42:35;10.70;94.90
45137;DHT22;30894;51.740;19.498;2023-04-09T06:45:03;10.80;94.50
45137;DHT22;30894;51.740;19.498;2023-04-09T06:47:34;10.90;94.20
45137;DHT22;30894;51.740;19.498;2023-04-09T06:50:00;10.90;94.20
45137;DHT22;30894;51.740;19.498;2023-04-09T06:52:26;11.00;94.20
45137;DHT22;30894;51.740;19.498;2023-04-09T06:54:52;11.00;94.20
45137;DHT22;30894;51.740;19.498;2023-04-09T06:57:19;11.10;94.20
45137;DHT22;30894;51.740;19.498;2023-04-09T06:59:45;11.10;94.20
45137;DHT22;30894;51.740;19.498;2023-04-09T07:02:11;11.10;94.20
45137;DHT22;30894;51.740;19.498;2023-04-09T07:04:37;11.20;94.20
45137;DHT22;30894;51.740;19.498;2023-04-09T07:07:03;11.10;94.20
45137;DHT22;30894;51.740;19.498;2023-04-09T07:09:29;11.10;94.20
45137;DHT22;30894;51.740;19.498;2023-04-09T07:11:56;11.10;94.30
45137;DHT22;30894;51.740;19.498;2023-04-09T07:14:25;11.20;94.40
45137;DHT22;30894;51.740;19.498;2023-04-09T07:16:59;11.20;94.40
45137;DHT22;30894;51.740;19.498;2023-04-09T07:19:26;11.60;94.30
45137;DHT22;30894;51.740;19.498;2023-04-09T07:21:52;12.20;93.40
45137;DHT22;30894;51.740;19.498;2023-04-09T07:24:18;12.60;92.40
45137;DHT22;30894;51.740;19.498;2023-04-09T07:26:44;12.70;92.00
45137;DHT22;30894;51.740;19.498;2023-04-09T07:29:11;12.70;92.00
45137;DHT22;30894;51.740;19.498;2023-04-09T07:31:38;12.60;92.10
45137;DHT22;30894;51.740;19.498;2023-04-09T07:34:04;12.60;92.40
45137;DHT22;30894;51.740;19.498;2023-04-09T07:36:30;12.70;92.50
45137;DHT22;30894;51.740;19.498;2023-04-09T07:38:58;13.10;92.20
45137;DHT22;30894;51.740;19.498;2023-04-09T07:41:25;13.40;91.60
45137;DHT22;30894;51.740;19.498;2023-04-09T07:43:51;13.60;91.30
45137;DHT22;30894;51.740;19.498;2023-04-09T07:46:18;13.90;90.90
45137;DHT22;30894;51.740;19.498;2023-04-09T07:48:46;14.10;90.30
45137;DHT22;30894;51.740;19.498;2023-04-09T07:51:14;14.30;90.00
45137;DHT22;30894;51.740;19.498;2023-04-09T07:53:40;14.60;89.50
45137;DHT22;30894;51.740;19.498;2023-04-09T07:56:07;14.90;88.60
45137;DHT22;30894;51.740;19.498;2023-04-09T07:58:33;15.50;87.00
45137;DHT22;30894;51.740;19.498;2023-04-09T08:00:59;16.10;84.60
45137;DHT22;30894;51.740;19.498;2023-04-09T08:03:25;16.60;82.50
45137;DHT22;30894;51.740;19.498;2023-04-09T08:05:52;17.00;82.00
45137;DHT22;30894;51.740;19.498;2023-04-09T08:08:18;17.30;80.30
45137;DHT22;30894;51.740;19.498;2023-04-09T08:10:44;17.50;79.40
45137;DHT22;30894;51.740;19.498;2023-04-09T08:13:10;17.80;78.70
45137;DHT22;30894;51.740;19.498;2023-04-09T08:15:36;18.20;77.90
45137;DHT22;30894;51.740;19.498;2023-04-09T08:18:02;18.60;76.90
45137;DHT22;30894;51.740;19.498;2023-04-09T08:20:29;19.10;76.00
45137;DHT22;30894;51.740;19.498;2023-04-09T08:23:00;20.90;73.20
45137;DHT22;30894;51.740;19.498;2023-04-09T08:25:27;23.00;68.50
45137;DHT22;30894;51.740;19.498;2023-04-09T08:27:53;24.80;64.80
45137;DHT22;30894;51.740;19.498;2023-04-09T08:30:19;26.30;62.00
45137;DHT22;30894;51.740;19.498;2023-04-09T08:32:45;27.20;60.10
45137;DHT22;30894;51.740;19.498;2023-04-09T08:35:11;27.90;59.00
45137;DHT22;30894;51.740;19.498;2023-04-09T08:37:37;28.20;58.60
45137;DHT22;30894;51.740;19.498;2023-04-09T08:40:04;27.90;58.60
45137;DHT22;30894;51.740;19.498;2023-04-09T08:42:33;27.40;59.70
45137;DHT22;30894;51.740;19.498;2023-04-09T08:45:03;26.80;60.50
45137;DHT22;30894;51.740;19.498;2023-04-09T08:47:31;25.80;62.20
45137;DHT22;30894;51.740;19.498;2023-04-09T08:49:58;24.80;64.10
45137;DHT22;30894;51.740;19.498;2023-04-09T08:52:31;24.00;65.80
45137;DHT22;30894;51.740;19.498;2023-04-09T08:54:59;23.40;66.80
45137;DHT22;30894;51.740;19.498;2023-04-09T08:57:26;23.00;68.00
45137;DHT22;30894;51.740;19.498;2023-04-09T08:59:58;22.40;69.10
45137;DHT22;30894;51.740;19.498;2023-04-09T09:02:24;21.60;70.70
45137;DHT22;30894;51.740;19.498;2023-04-09T09:04:50;21.00;72.20
45137;DHT22;30894;51.740;19.498;2023-04-09T09:07:18;20.40;73.40
45137;DHT22;30894;51.740;19.498;2023-04-09T09:09:58;19.90;74.70
45137;DHT22;30894;51.740;19.498;2023-04-09T09:15:24;19.20;76.40
45137;DHT22;30894;51.740;19.498;2023-04-09T09:17:58;19.10;77.10
45137;DHT22;30894;51.740;19.498;2023-04-09T09:20:26;18.80;77.60
45137;DHT22;30894;51.740;19.498;2023-04-09T09:22:54;18.60;78.00
45137;DHT22;30894;51.740;19.498;2023-04-09T09:25:22;18.50;78.40
45137;DHT22;30894;51.740;19.498;2023-04-09T09:27:49;18.30;78.70
45137;DHT22;30894;51.740;19.498;2023-04-09T09:30:20;18.30;78.90
45137;DHT22;30894;51.740;19.498;2023-04-09T09:32:51;18.20;79.10
45137;DHT22;30894;51.740;19.498;2023-04-09T09:35:49;18.10;79.20
45137;DHT22;30894;51.740;19.498;2023-04-09T09:38:17;17.90;79.40
45137;DHT22;30894;51.740;19.498;2023-04-09T09:40:43;17.70;79.70
45137;DHT22;30894;51.740;19.498;2023-04-09T09:43:10;17.50;80.10
45137;DHT22;30894;51.740;19.498;2023-04-09T09:45:37;17.40;80.30
45137;DHT22;30894;51.740;19.498;2023-04-09T09:48:04;17.60;80.40
45137;DHT22;30894;51.740;19.498;2023-04-09T09:50:33;17.90;79.80
45137;DHT22;30894;51.740;19.498;2023-04-09T09:53:06;18.40;78.60
45137;DHT22;30894;51.740;19.498;2023-04-09T09:55:38;18.80;77.30
45137;DHT22;30894;51.740;19.498;2023-04-09T09:58:11;19.00;76.50
45137;DHT22;30894;51.740;19.498;2023-04-09T10:00:49;19.30;75.70
45137;DHT22;30894;51.740;19.498;2023-04-09T10:03:22;19.40;75.20
45137;DHT22;30894;51.740;19.498;2023-04-09T10:05:50;19.20;75.20
45137;DHT22;30894;51.740;19.498;2023-04-09T10:08:18;19.00;75.30
45137;DHT22;30894;51.740;19.498;2023-04-09T10:10:47;18.80;75.60
45137;DHT22;30894;51.740;19.498;2023-04-09T10:13:36;18.70;75.60
45137;DHT22;30894;51.740;19.498;2023-04-09T10:16:04;18.60;75.70
45137;DHT22;30894;51.740;19.498;2023-04-09T10:18:32;18.60;75.80
45137;DHT22;30894;51.740;19.498;2023-04-09T10:21:16;18.60;75.60
45137;DHT22;30894;51.740;19.498;2023-04-09T10:23:49;18.50;75.80
45137;DHT22;30894;51.740;19.498;2023-04-09T10:26:18;18.30;76.10
45137;DHT22;30894;51.740;19.498;2023-04-09T10:28:44;18.30;76.20
45137;DHT22;30894;51.740;19.498;2023-04-09T10:31:10;18.40;76.20
45137;DHT22;30894;51.740;19.498;2023-04-09T10:33:37;18.50;76.00
45137;DHT22;30894;51.740;19.498;2023-04-09T10:36:13;18.60;75.80
45137;DHT22;30894;51.740;19.498;2023-04-09T10:38:46;18.60;75.60
45137;DHT22;30894;51.740;19.498;2023-04-09T10:41:15;18.50;75.60
45137;DHT22;30894;51.740;19.498;2023-04-09T10:43:47;18.50;75.50
45137;DHT22;30894;51.740;19.498;2023-04-09T10:46:34;18.60;75.50
45137;DHT22;30894;51.740;19.498;2023-04-09T10:51:37;18.50;75.50
45137;DHT22;30894;51.740;19.498;2023-04-09T10:54:04;18.70;75.40
45137;DHT22;30894;51.740;19.498;2023-04-09T10:56:32;18.80;75.00
45137;DHT22;30894;51.740;19.498;2023-04-09T10:58:58;19.00;74.70
45137;DHT22;30894;51.740;19.498;2023-04-09T11:01:25;19.40;74.10
45137;DHT22;30894;51.740;19.498;2023-04-09T11:04:08;19.50;73.50
45137;DHT22;30894;51.740;19.498;2023-04-09T11:06:40;19.60;73.10
45137;DHT22;30894;51.740;19.498;2023-04-09T11:09:09;19.80;73.00
45137;DHT22;30894;51.740;19.498;2023-04-09T11:11:36;19.80;72.90
45137;DHT22;30894;51.740;19.498;2023-04-09T11:14:02;19.60;73.80
45137;DHT22;30894;51.740;19.498;2023-04-09T11:16:37;19.30;73.60
45137;DHT22;30894;51.740;19.498;2023-04-09T11:19:09;19.20;73.90
45137;DHT22;30894;51.740;19.498;2023-04-09T11:21:36;19.40;73.80
45137;DHT22;30894;51.740;19.498;2023-04-09T11:24:03;19.80;73.00
45137;DHT22;30894;51.740;19.498;2023-04-09T11:26:36;20.10;72.30
45137;DHT22;30894;51.740;19.498;2023-04-09T11:29:10;20.30;71.80
45137;DHT22;30894;51.740;19.498;2023-04-09T11:31:43;20.30;71.50
45137;DHT22;30894;51.740;19.498;2023-04-09T11:34:09;20.50;71.30
45137;DHT22;30894;51.740;19.498;2023-04-09T11:36:40;20.60;71.00
45137;DHT22;30894;51.740;19.498;2023-04-09T11:39:07;20.80;70.80
45137;DHT22;30894;51.740;19.498;2023-04-09T11:41:37;20.90;70.50
45137;DHT22;30894;51.740;19.498;2023-04-09T11:44:04;20.50;70.70
45137;DHT22;30894;51.740;19.498;2023-04-09T11:46:34;20.30;71.30
45137;DHT22;30894;51.740;19.498;2023-04-09T11:49:04;20.00;71.70
45137;DHT22;30894;51.740;19.498;2023-04-09T11:51:30;19.80;72.40
45137;DHT22;30894;51.740;19.498;2023-04-09T11:54:04;19.40;72.80
45137;DHT22;30894;51.740;19.498;2023-04-09T11:56:32;19.20;73.60
45137;DHT22;30894;51.740;19.498;2023-04-09T11:59:01;18.80;74.80
45137;DHT22;30894;51.740;19.498;2023-04-09T12:01:32;18.50;74.80
45137;DHT22;30894;51.740;19.498;2023-04-09T12:03:59;18.10;75.40
45137;DHT22;30894;51.740;19.498;2023-04-09T12:06:26;17.90;76.00
45137;DHT22;30894;51.740;19.498;2023-04-09T12:08:59;17.70;76.50
45137;DHT22;30894;51.740;19.498;2023-04-09T12:11:42;17.60;76.80
45137;DHT22;30894;51.740;19.498;2023-04-09T12:14:13;17.40;77.10
45137;DHT22;30894;51.740;19.498;2023-04-09T12:16:41;17.30;77.50
45137;DHT22;30894;51.740;19.498;2023-04-09T12:19:15;17.10;77.80
45137;DHT22;30894;51.740;19.498;2023-04-09T12:24:11;16.80;78.30
45137;DHT22;30894;51.740;19.498;2023-04-09T12:26:45;16.80;78.60
45137;DHT22;30894;51.740;19.498;2023-04-09T12:29:21;16.70;78.50
45137;DHT22;30894;51.740;19.498;2023-04-09T12:32:13;16.70;78.70
45137;DHT22;30894;51.740;19.498;2023-04-09T12:34:39;16.70;78.80
45137;DHT22;30894;51.740;19.498;2023-04-09T12:37:06;16.70;78.60
45137;DHT22;30894;51.740;19.498;2023-04-09T12:39:32;16.70;78.50
45137;DHT22;30894;51.740;19.498;2023-04-09T12:41:58;16.80;78.40
45137;DHT22;30894;51.740;19.498;2023-04-09T12:44:27;16.70;78.30
45137;DHT22;30894;51.740;19.498;2023-04-09T12:47:02;16.70;78.30
45137;DHT22;30894;51.740;19.498;2023-04-09T12:49:43;16.50;78.40
45137;DHT22;30894;51.740;19.498;2023-04-09T12:52:11;16.30;78.80
45137;DHT22;30894;51.740;19.498;2023-04-09T12:54:41;16.10;79.20
45137;DHT22;30894;51.740;19.498;2023-04-09T12:57:07;15.90;79.80
45137;DHT22;30894;51.740;19.498;2023-04-09T12:59:33;15.70;80.20
45137;DHT22;30894;51.740;19.498;2023-04-09T13:01:59;15.60;80.60
45137;DHT22;30894;51.740;19.498;2023-04-09T13:04:25;15.40;80.90
45137;DHT22;30894;51.740;19.498;2023-04-09T13:06:51;15.20;81.20
45137;DHT22;30894;51.740;19.498;2023-04-09T13:09:17;15.10;81.50
45137;DHT22;30894;51.740;19.498;2023-04-09T13:11:46;15.00;81.70
45137;DHT22;30894;51.740;19.498;2023-04-09T13:14:12;14.90;81.90
45137;DHT22;30894;51.740;19.498;2023-04-09T13:16:39;14.80;82.10
45137;DHT22;30894;51.740;19.498;2023-04-09T13:19:06;14.80;82.30
45137;DHT22;30894;51.740;19.498;2023-04-09T13:21:33;14.70;82.40
45137;DHT22;30894;51.740;19.498;2023-04-09T13:23:59;14.70;82.50
45137;DHT22;30894;51.740;19.498;2023-04-09T13:26:25;14.50;82.60
45137;DHT22;30894;51.740;19.498;2023-04-09T13:28:51;14.50;82.80
45137;DHT22;30894;51.740;19.498;2023-04-09T13:31:18;14.40;83.00
45137;DHT22;30894;51.740;19.498;2023-04-09T13:33:44;14.30;83.20
45137;DHT22;30894;51.740;19.498;2023-04-09T13:36:11;14.10;83.30
45137;DHT22;30894;51.740;19.498;2023-04-09T13:38:37;14.00;83.60
45137;DHT22;30894;51.740;19.498;2023-04-09T13:41:04;13.90;84.00
45137;DHT22;30894;51.740;19.498;2023-04-09T13:43:30;13.70;84.20
45137;DHT22;30894;51.740;19.498;2023-04-09T13:45:56;13.60;84.50
45137;DHT22;30894;51.740;19.498;2023-04-09T13:48:23;13.60;84.90
45137;DHT22;30894;51.740;19.498;2023-04-09T13:50:49;13.40;85.10
45137;DHT22;30894;51.740;19.498;2023-04-09T13:53:16;13.30;85.40
45137;DHT22;30894;51.740;19.498;2023-04-09T13:55:44;13.20;85.60
45137;DHT22;30894;51.740;19.498;2023-04-09T13:58:11;13.10;85.80
45137;DHT22;30894;51.740;19.498;2023-04-09T14:00:37;13.00;86.20
45137;DHT22;30894;51.740;19.498;2023-04-09T14:03:04;12.80;86.70
45137;DHT22;30894;51.740;19.498;2023-04-09T14:05:30;12.60;87.20
45137;DHT22;30894;51.740;19.498;2023-04-09T14:07:59;12.40;87.80
45137;DHT22;30894;51.740;19.498;2023-04-09T14:10:25;12.20;88.40
45137;DHT22;30894;51.740;19.498;2023-04-09T14:12:52;12.10;88.80
45137;DHT22;30894;51.740;19.498;2023-04-09T14:15:18;12.00;89.30
45137;DHT22;30894;51.740;19.498;2023-04-09T14:17:44;11.90;89.70
45137;DHT22;30894;51.740;19.498;2023-04-09T14:20:11;11.80;90.00
45137;DHT22;30894;51.740;19.498;2023-04-09T14:22:37;11.80;90.10
45137;DHT22;30894;51.740;19.498;2023-04-09T14:25:04;11.70;90.20
45137;DHT22;30894;51.740;19.498;2023-04-09T14:27:30;11.60;90.30
45137;DHT22;30894;51.740;19.498;2023-04-09T14:29:56;11.60;90.40
45137;DHT22;30894;51.740;19.498;2023-04-09T14:32:22;11.60;90.60
45137;DHT22;30894;51.740;19.498;2023-04-09T14:34:48;11.60;90.60
45137;DHT22;30894;51.740;19.498;2023-04-09T14:37:15;11.60;90.70
45137;DHT22;30894;51.740;19.498;2023-04-09T14:39:41;11.50;90.70
45137;DHT22;30894;51.740;19.498;2023-04-09T14:42:08;11.50;90.70
45137;DHT22;30894;51.740;19.498;2023-04-09T14:44:33;11.50;90.80
45137;DHT22;30894;51.740;19.498;2023-04-09T14:47:00;11.50;90.90
45137;DHT22;30894;51.740;19.498;2023-04-09T14:49:26;11.40;91.00
45137;DHT22;30894;51.740;19.498;2023-04-09T14:51:52;11.40;91.00
45137;DHT22;30894;51.740;19.498;2023-04-09T14:54:19;11.40;91.10
45137;DHT22;30894;51.740;19.498;2023-04-09T14:56:45;11.30;91.30
45137;DHT22;30894;51.740;19.498;2023-04-09T14:59:11;11.20;91.50
45137;DHT22;30894;51.740;19.498;2023-04-09T15:01:37;11.10;91.60
45137;DHT22;30894;51.740;19.498;2023-04-09T15:04:03;11.00;91.80
45137;DHT22;30894;51.740;19.498;2023-04-09T15:06:29;11.00;92.10
45137;DHT22;30894;51.740;19.498;2023-04-09T15:08:56;11.10;92.20
45137;DHT22;30894;51.740;19.498;2023-04-09T15:11:22;11.20;92.10
45137;DHT22;30894;51.740;19.498;2023-04-09T15:13:50;11.30;91.90
45137;DHT22;30894;51.740;19.498;2023-04-09T15:16:22;11.40;92.10
45137;DHT22;30894;51.740;19.498;2023-04-09T15:18:54;11.50;91.80
45137;DHT22;30894;51.740;19.498;2023-04-09T15:21:24;11.40;91.80
45137;DHT22;30894;51.740;19.498;2023-04-09T15:23:52;11.40;91.90
45137;DHT22;30894;51.740;19.498;2023-04-09T15:26:18;11.30;91.90
45137;DHT22;30894;51.740;19.498;2023-04-09T15:28:44;11.20;92.10
45137;DHT22;30894;51.740;19.498;2023-04-09T15:31:11;11.10;92.40
45137;DHT22;30894;51.740;19.498;2023-04-09T15:33:37;11.10;92.60
45137;DHT22;30894;51.740;19.498;2023-04-09T15:36:04;11.10;92.60
45137;DHT22;30894;51.740;19.498;2023-04-09T15:38:30;11.10;92.70
45137;DHT22;30894;51.740;19.498;2023-04-09T15:40:57;11.10;92.70
45137;DHT22;30894;51.740;19.498;2023-04-09T15:43:23;11.10;92.80
45137;DHT22;30894;51.740;19.498;2023-04-09T15:45:50;11.10;92.80
45137;DHT22;30894;51.740;19.498;2023-04-09T15:48:16;11.10;93.20
45137;DHT22;30894;51.740;19.498;2023-04-09T15:50:44;11.20;92.90